createdAt,value
2017-06-15T00:00:59.177Z,42.33
2017-06-15T00:01:59.208Z,42.61
2017-06-15T00:02:59.486Z,42.61
2017-06-15T00:03:59.263Z,42.71
2017-06-15T00:04:59.295Z,43.1
2017-06-15T00:05:59.016Z,42.81
2017-06-15T00:06:59.352Z,43.01
2017-06-15T00:07:59.373Z,42.91
2017-06-15T00:08:59.410Z,42.71
2017-06-15T00:09:59.444Z,42.43
2017-06-15T00:10:59.474Z,42.81
2017-06-15T00:11:59.502Z,42.61
2017-06-15T00:12:59.781Z,42.61
2017-06-15T00:13:59.558Z,42.81
2017-06-15T00:14:59.591Z,43.01
2017-06-15T00:15:59.618Z,42.91
2017-06-15T00:16:59.645Z,42.81
2017-06-15T00:17:59.925Z,43.01
2017-06-15T00:18:59.424Z,43.2
2017-06-15T00:19:59.427Z,42.91
2017-06-15T00:20:59.769Z,42.71
2017-06-15T00:21:59.798Z,42.91
2017-06-15T00:23:00.078Z,42.91
2017-06-15T00:23:59.864Z,42.81
2017-06-15T00:24:59.572Z,42.71
2017-06-15T00:25:59.922Z,42.71
2017-06-15T00:26:59.945Z,42.81
2017-06-15T00:28:00.225Z,42.71
2017-06-15T00:29:00.002Z,42.81
2017-06-15T00:30:00.037Z,42.91
2017-06-15T00:31:00.065Z,42.61
2017-06-15T00:32:00.093Z,43.01
2017-06-15T00:33:00.370Z,43.01
2017-06-15T00:34:00.155Z,42.61
2017-06-15T00:35:00.182Z,42.91
2017-06-15T00:36:00.212Z,43.3
2017-06-15T00:37:00.237Z,43.4
2017-06-15T00:38:00.529Z,43.59
2017-06-15T00:39:00.299Z,43.68
2017-06-15T00:40:00.328Z,43.59
2017-06-15T00:41:00.356Z,43.59
2017-06-15T00:42:00.394Z,42.91
2017-06-15T00:43:00.105Z,43.59
2017-06-15T00:44:00.450Z,43.4
2017-06-15T00:45:00.475Z,43.3
2017-06-15T00:46:00.507Z,43.4
2017-06-15T00:47:00.537Z,43.3
2017-06-15T00:48:00.598Z,43.49
2017-06-15T00:49:00.591Z,43.4
2017-06-15T00:50:00.628Z,43.27
2017-06-15T00:51:00.652Z,43.18
2017-06-15T00:52:00.684Z,43.78
2017-06-15T00:53:00.718Z,42.79
2017-06-15T00:54:00.746Z,42.89
2017-06-15T00:55:00.459Z,43.3
2017-06-15T00:56:00.804Z,42.89
2017-06-15T00:57:00.825Z,43.3
2017-06-15T00:58:00.570Z,42.99
2017-06-15T00:59:00.895Z,43.76
2017-06-15T01:00:00.924Z,43.18
2017-06-15T01:01:00.948Z,42.99
2017-06-15T01:02:00.980Z,43.27
2017-06-15T01:03:01.005Z,43.1
2017-06-15T01:04:01.043Z,43.27
2017-06-15T01:05:01.067Z,43.3
2017-06-15T01:06:01.099Z,43.27
2017-06-15T01:07:00.817Z,43.47
2017-06-15T01:08:01.151Z,43.47
2017-06-15T01:09:01.187Z,43.57
2017-06-15T01:10:01.215Z,43.57
2017-06-15T01:11:00.931Z,43.37
2017-06-15T01:12:00.960Z,43.47
2017-06-15T01:13:00.989Z,43.37
2017-06-15T01:14:01.334Z,43.66
2017-06-15T01:15:01.363Z,43.47
2017-06-15T01:16:01.393Z,43.66
2017-06-15T01:17:01.424Z,43.57
2017-06-15T01:18:01.454Z,43.57
2017-06-15T01:19:01.482Z,43.57
2017-06-15T01:20:01.503Z,43.66
2017-06-15T01:21:01.536Z,43.57
2017-06-15T01:22:01.565Z,43.76
2017-06-15T01:23:01.287Z,43.76
2017-06-15T01:24:01.622Z,43.57
2017-06-15T01:25:01.660Z,44.15
2017-06-15T01:26:01.369Z,43.57
2017-06-15T01:27:01.400Z,44.05
2017-06-15T01:28:01.741Z,43.18
2017-06-15T01:29:01.774Z,43.57
2017-06-15T01:30:01.804Z,43.57
2017-06-15T01:31:01.524Z,43.37
2017-06-15T01:32:01.865Z,44.24
2017-06-15T01:33:01.894Z,43.86
2017-06-15T01:34:01.920Z,43.86
2017-06-15T01:35:01.948Z,44.05
2017-06-15T01:36:01.981Z,43.86
2017-06-15T01:37:01.701Z,44.03
2017-06-15T01:38:02.034Z,44.24
2017-06-15T01:39:02.073Z,44.44
2017-06-15T01:40:02.098Z,44.13
2017-06-15T01:41:02.126Z,44.24
2017-06-15T01:42:02.157Z,44.34
2017-06-15T01:43:01.874Z,44.15
2017-06-15T01:44:02.211Z,44.15
2017-06-15T01:45:01.935Z,44.13
2017-06-15T01:46:02.277Z,44.05
2017-06-15T01:47:02.305Z,43.95
2017-06-15T01:48:02.333Z,44.15
2017-06-15T01:49:02.367Z,44.44
2017-06-15T01:50:02.388Z,44.34
2017-06-15T01:51:02.420Z,44.05
2017-06-15T01:52:02.448Z,43.93
2017-06-15T01:53:02.477Z,43.95
2017-06-15T01:54:02.512Z,43.93
2017-06-15T01:55:02.228Z,44.32
2017-06-15T01:56:02.569Z,44.03
2017-06-15T01:57:02.596Z,44.03
2017-06-15T01:58:02.622Z,44.51
2017-06-15T01:59:02.650Z,44.23
2017-06-15T02:00:02.675Z,43.93
2017-06-15T02:01:02.708Z,44.51
2017-06-15T02:02:02.742Z,44.32
2017-06-15T02:03:02.767Z,44.32
2017-06-15T02:04:02.800Z,44.13
2017-06-15T02:05:02.826Z,44.23
2017-06-15T02:06:02.857Z,44.51
2017-06-15T02:07:02.885Z,44.61
2017-06-15T02:08:02.915Z,44.32
2017-06-15T02:09:02.943Z,44.71
2017-06-15T02:10:02.976Z,44.71
2017-06-15T02:11:03.005Z,44.51
2017-06-15T02:12:03.034Z,44.51
2017-06-15T02:13:03.065Z,44.81
2017-06-15T02:14:03.094Z,44.81
2017-06-15T02:15:03.125Z,44.51
2017-06-15T02:16:03.152Z,44.51
2017-06-15T02:17:03.176Z,44.32
2017-06-15T02:18:03.209Z,44.42
2017-06-15T02:19:03.235Z,44.32
2017-06-15T02:20:03.271Z,44.51
2017-06-15T02:21:03.300Z,44.51
2017-06-15T02:22:03.329Z,44.23
2017-06-15T02:23:03.360Z,44.61
2017-06-15T02:24:03.383Z,44.23
2017-06-15T02:25:03.411Z,44.61
2017-06-15T02:26:03.440Z,44.42
2017-06-15T02:27:03.472Z,44.61
2017-06-15T02:28:03.502Z,44.32
2017-06-15T02:29:03.218Z,44.51
2017-06-15T02:30:03.251Z,44.42
2017-06-15T02:31:03.593Z,44.71
2017-06-15T02:32:03.617Z,44.51
2017-06-15T02:33:03.650Z,45
2017-06-15T02:34:03.674Z,44.61
2017-06-15T02:35:03.396Z,45.39
2017-06-15T02:36:03.430Z,44.32
2017-06-15T02:37:03.761Z,44.51
2017-06-15T02:38:03.794Z,44.42
2017-06-15T02:39:03.817Z,44.51
2017-06-15T02:40:03.538Z,44.42
2017-06-15T02:41:03.569Z,44.81
2017-06-15T02:42:03.915Z,44.81
2017-06-15T02:43:03.630Z,44.51
2017-06-15T02:44:03.657Z,44.51
2017-06-15T02:45:03.999Z,44.81
2017-06-15T02:46:03.714Z,44.81
2017-06-15T02:47:04.057Z,44.81
2017-06-15T02:48:04.082Z,44.51
2017-06-15T02:49:03.802Z,44.71
2017-06-15T02:50:04.144Z,45
2017-06-15T02:51:04.173Z,44.81
2017-06-15T02:52:04.202Z,44.81
2017-06-15T02:53:03.917Z,44.71
2017-06-15T02:54:04.509Z,45.2
2017-06-15T02:55:03.979Z,45.2
2017-06-15T02:56:04.324Z,45.1
2017-06-15T02:57:04.037Z,45.1
2017-06-15T02:58:04.378Z,45.1
2017-06-15T02:59:04.659Z,45.1
2017-06-15T03:00:04.119Z,45.1
2017-06-15T03:01:04.464Z,45
2017-06-15T03:02:04.182Z,45.1
2017-06-15T03:03:04.526Z,45
2017-06-15T03:04:04.551Z,45.2
2017-06-15T03:05:04.265Z,44.9
2017-06-15T03:06:04.604Z,44.9
2017-06-15T03:07:04.634Z,45.1
2017-06-15T03:08:04.670Z,45.1
2017-06-15T03:09:04.942Z,45.1
2017-06-15T03:10:04.730Z,45.2
2017-06-15T03:11:04.757Z,45.2
2017-06-15T03:12:04.786Z,45
2017-06-15T03:13:04.810Z,45
2017-06-15T03:14:04.839Z,44.81
2017-06-15T03:15:04.873Z,45
2017-06-15T03:16:04.585Z,44.71
2017-06-15T03:17:04.608Z,44.9
2017-06-15T03:18:04.637Z,44.81
2017-06-15T03:19:05.238Z,44.81
2017-06-15T03:20:05.018Z,45
2017-06-15T03:21:04.731Z,44.81
2017-06-15T03:22:04.760Z,45.1
2017-06-15T03:23:05.107Z,45.1
2017-06-15T03:24:05.122Z,44.51
2017-06-15T03:25:05.167Z,44.9
2017-06-15T03:26:04.876Z,45.2
2017-06-15T03:27:05.210Z,44.59
2017-06-15T03:28:05.246Z,44.51
2017-06-15T03:29:05.531Z,44.81
2017-06-15T03:30:05.303Z,44.51
2017-06-15T03:31:05.338Z,44.59
2017-06-15T03:32:05.053Z,44.61
2017-06-15T03:33:05.082Z,45.1
2017-06-15T03:34:05.423Z,44.61
2017-06-15T03:35:05.448Z,44.71
2017-06-15T03:36:05.169Z,45.29
2017-06-15T03:37:05.506Z,45.29
2017-06-15T03:38:05.227Z,44.61
2017-06-15T03:39:05.247Z,45.1
2017-06-15T03:40:05.278Z,44.68
2017-06-15T03:41:05.625Z,44.61
2017-06-15T03:42:05.656Z,44.71
2017-06-15T03:43:05.688Z,45.2
2017-06-15T03:44:05.714Z,44.71
2017-06-15T03:45:05.743Z,44.61
2017-06-15T03:46:05.772Z,44.71
2017-06-15T03:47:05.486Z,45
2017-06-15T03:48:05.862Z,45.2
2017-06-15T03:49:05.855Z,45.27
2017-06-15T03:50:05.880Z,45.37
2017-06-15T03:51:05.918Z,45.27
2017-06-15T03:52:05.945Z,45.29
2017-06-15T03:53:05.973Z,45.37
2017-06-15T03:54:06.002Z,45.39
2017-06-15T03:55:06.027Z,45.17
2017-06-15T03:56:06.065Z,45.48
2017-06-15T03:57:06.094Z,44.9
2017-06-15T03:58:06.127Z,45.27
2017-06-15T03:59:05.839Z,45.37
2017-06-15T04:00:06.180Z,45.37
2017-06-15T04:01:06.205Z,45.47
2017-06-15T04:02:06.236Z,45.17
2017-06-15T04:03:06.265Z,45.29
2017-06-15T04:04:06.323Z,45.27
2017-06-15T04:05:06.324Z,45.07
2017-06-15T04:06:06.352Z,45.39
2017-06-15T04:07:06.373Z,45.56
2017-06-15T04:08:06.408Z,45.58
2017-06-15T04:09:06.123Z,45.47
2017-06-15T04:10:06.468Z,45.56
2017-06-15T04:11:06.492Z,45.47
2017-06-15T04:12:06.525Z,45.37
2017-06-15T04:13:06.554Z,45.48
2017-06-15T04:14:06.579Z,45.65
2017-06-15T04:15:06.301Z,45.47
2017-06-15T04:16:06.640Z,45.58
2017-06-15T04:17:06.674Z,45.47
2017-06-15T04:18:06.695Z,45.47
2017-06-15T04:19:06.731Z,45.48
2017-06-15T04:20:06.759Z,45.39
2017-06-15T04:21:06.787Z,45.37
2017-06-15T04:22:06.503Z,45.17
2017-06-15T04:23:06.845Z,45.48
2017-06-15T04:24:06.871Z,45.56
2017-06-15T04:25:06.592Z,44.9
2017-06-15T04:26:06.934Z,45.07
2017-06-15T04:27:06.962Z,45.2
2017-06-15T04:28:06.981Z,45.39
2017-06-15T04:29:07.020Z,45.27
2017-06-15T04:30:07.048Z,45.39
2017-06-15T04:31:07.077Z,45.2
2017-06-15T04:32:07.106Z,45.17
2017-06-15T04:33:07.130Z,45.2
2017-06-15T04:34:06.851Z,45.68
2017-06-15T04:35:07.192Z,45.37
2017-06-15T04:36:07.226Z,45.47
2017-06-15T04:37:07.250Z,45.27
2017-06-15T04:38:07.279Z,45.29
2017-06-15T04:39:06.999Z,45.27
2017-06-15T04:40:07.024Z,45.58
2017-06-15T04:41:07.369Z,45.39
2017-06-15T04:42:07.081Z,45.47
2017-06-15T04:43:07.422Z,45.37
2017-06-15T04:44:07.138Z,45.37
2017-06-15T04:45:07.480Z,45.47
2017-06-15T04:46:07.512Z,45.75
2017-06-15T04:47:07.541Z,45.56
2017-06-15T04:48:07.565Z,45.85
2017-06-15T04:49:07.599Z,45.37
2017-06-15T04:50:07.312Z,45.37
2017-06-15T04:51:07.340Z,45.47
2017-06-15T04:52:07.686Z,45.56
2017-06-15T04:53:07.715Z,45.27
2017-06-15T04:54:07.744Z,45.56
2017-06-15T04:55:07.765Z,45.56
2017-06-15T04:56:07.796Z,45.65
2017-06-15T04:57:07.830Z,45.85
2017-06-15T04:58:07.859Z,45.56
2017-06-15T04:59:07.887Z,45.37
2017-06-15T05:00:07.603Z,45.37
2017-06-15T05:01:07.936Z,45.27
2017-06-15T05:02:07.661Z,45.37
2017-06-15T05:03:07.999Z,45.29
2017-06-15T05:04:08.027Z,45.27
2017-06-15T05:05:08.065Z,45.37
2017-06-15T05:06:08.088Z,45.29
2017-06-15T05:07:07.809Z,45.48
2017-06-15T05:08:08.151Z,45.39
2017-06-15T05:09:08.174Z,45.47
2017-06-15T05:10:08.204Z,45.39
2017-06-15T05:11:08.236Z,45.48
2017-06-15T05:12:08.261Z,45.58
2017-06-15T05:13:08.290Z,45.29
2017-06-15T05:14:08.324Z,45.27
2017-06-15T05:15:08.064Z,45.47
2017-06-15T05:16:08.384Z,45.48
2017-06-15T05:17:08.404Z,45.47
2017-06-15T05:18:08.440Z,45.39
2017-06-15T05:19:08.467Z,45.2
2017-06-15T05:20:08.179Z,45.48
2017-06-15T05:21:08.525Z,45.29
2017-06-15T05:22:08.241Z,45.39
2017-06-15T05:23:08.578Z,45.39
2017-06-15T05:24:08.298Z,45.39
2017-06-15T05:25:08.636Z,45.29
2017-06-15T05:26:08.672Z,45.29
2017-06-15T05:27:08.695Z,45.48
2017-06-15T05:28:08.412Z,45.48
2017-06-15T05:29:08.759Z,45.48
2017-06-15T05:30:08.784Z,45.1
2017-06-15T05:31:08.506Z,45.1
2017-06-15T05:32:08.529Z,45.39
2017-06-15T05:33:08.871Z,45.39
2017-06-15T05:34:08.582Z,45.48
2017-06-15T05:35:08.620Z,45.39
2017-06-15T05:36:08.957Z,45.39
2017-06-15T05:37:08.989Z,45.39
2017-06-15T05:38:09.014Z,45.87
2017-06-15T05:39:09.051Z,45.48
2017-06-15T05:40:09.072Z,45.48
2017-06-15T05:41:09.103Z,45.39
2017-06-15T05:42:09.133Z,45.58
2017-06-15T05:43:09.159Z,45.48
2017-06-15T05:44:08.876Z,45.58
2017-06-15T05:45:09.221Z,45.58
2017-06-15T05:46:09.249Z,45.48
2017-06-15T05:47:09.278Z,45.39
2017-06-15T05:48:09.303Z,45.39
2017-06-15T05:49:09.339Z,45.48
2017-06-15T05:50:09.395Z,45.58
2017-06-15T05:51:09.085Z,45.29
2017-06-15T05:52:09.426Z,45.29
2017-06-15T05:53:09.454Z,45.39
2017-06-15T05:54:09.484Z,45.29
2017-06-15T05:55:09.508Z,45.39
2017-06-15T05:56:09.230Z,45.29
2017-06-15T05:57:09.594Z,45.39
2017-06-15T05:58:09.283Z,45.48
2017-06-15T05:59:09.628Z,45.29
2017-06-15T06:00:09.657Z,45.48
2017-06-15T06:01:09.685Z,45.39
2017-06-15T06:02:09.705Z,45.39
2017-06-15T06:03:09.742Z,45.48
2017-06-15T06:04:09.762Z,45.48
2017-06-15T06:05:10.052Z,45.48
2017-06-15T06:06:09.829Z,45.39
2017-06-15T06:07:09.862Z,45.39
2017-06-15T06:08:09.571Z,45.58
2017-06-15T06:09:09.919Z,45.48
2017-06-15T06:10:10.200Z,45.48
2017-06-15T06:11:09.657Z,45.39
2017-06-15T06:12:10.006Z,45.58
2017-06-15T06:13:10.030Z,45.48
2017-06-15T06:14:10.059Z,45.2
2017-06-15T06:15:10.335Z,45.48
2017-06-15T06:16:10.112Z,45.1
2017-06-15T06:17:10.150Z,45.2
2017-06-15T06:18:10.179Z,44.71
2017-06-15T06:19:10.206Z,45.1
2017-06-15T06:20:10.236Z,44.71
2017-06-15T06:21:10.277Z,45.1
2017-06-15T06:22:10.294Z,45
2017-06-15T06:23:10.322Z,45
2017-06-15T06:24:10.356Z,45.1
2017-06-15T06:25:10.319Z,44.9
2017-06-15T06:26:10.409Z,45
2017-06-15T06:27:10.444Z,45
2017-06-15T06:28:10.466Z,44.81
2017-06-15T06:29:10.500Z,44.81
2017-06-15T06:30:10.780Z,44.92
2017-06-15T06:31:10.245Z,44.81
2017-06-15T06:32:10.587Z,45
2017-06-15T06:33:10.615Z,45
2017-06-15T06:34:10.644Z,45
2017-06-15T06:35:10.673Z,44.83
2017-06-15T06:36:10.702Z,44.81
2017-06-15T06:37:10.727Z,45.12
2017-06-15T06:38:10.759Z,44.9
2017-06-15T06:39:10.788Z,44.83
2017-06-15T06:40:11.071Z,44.9
2017-06-15T06:41:10.849Z,44.83
2017-06-15T06:42:10.877Z,44.92
2017-06-15T06:43:10.903Z,44.81
2017-06-15T06:44:10.623Z,44.92
2017-06-15T06:45:11.215Z,45.1
2017-06-15T06:46:10.993Z,45.02
2017-06-15T06:47:10.710Z,44.54
2017-06-15T06:48:11.047Z,45.02
2017-06-15T06:49:11.074Z,45.02
2017-06-15T06:50:11.051Z,45.12
2017-06-15T06:51:11.142Z,45.12
2017-06-15T06:52:11.168Z,45.12
2017-06-15T06:53:11.194Z,45.02
2017-06-15T06:54:11.223Z,45.12
2017-06-15T06:55:11.505Z,45.02
2017-06-15T06:56:11.285Z,45.12
2017-06-15T06:57:11.313Z,44.83
2017-06-15T06:58:11.338Z,44.92
2017-06-15T06:59:11.371Z,44.83
2017-06-15T07:00:11.343Z,44.83
2017-06-15T07:01:11.121Z,44.64
2017-06-15T07:02:11.143Z,44.73
2017-06-15T07:03:11.495Z,44.54
2017-06-15T07:04:11.519Z,44.44
2017-06-15T07:05:11.488Z,44.54
2017-06-15T07:06:11.581Z,44.64
2017-06-15T07:07:11.614Z,44.44
2017-06-15T07:08:11.639Z,44.54
2017-06-15T07:09:11.663Z,44.64
2017-06-15T07:10:11.943Z,44.44
2017-06-15T07:11:11.725Z,44.44
2017-06-15T07:12:11.746Z,44.85
2017-06-15T07:13:11.783Z,44.44
2017-06-15T07:14:11.815Z,44.73
2017-06-15T07:15:11.778Z,44.65
2017-06-15T07:16:11.869Z,44.46
2017-06-15T07:17:11.901Z,44.85
2017-06-15T07:18:11.932Z,44.37
2017-06-15T07:19:11.958Z,44.05
2017-06-15T07:20:11.990Z,44.27
2017-06-15T07:21:11.697Z,44.07
2017-06-15T07:22:12.044Z,43.88
2017-06-15T07:23:12.077Z,43.88
2017-06-15T07:24:12.107Z,44.07
2017-06-15T07:25:12.391Z,43.88
2017-06-15T07:26:12.161Z,44.17
2017-06-15T07:27:12.193Z,44.07
2017-06-15T07:28:11.908Z,43.88
2017-06-15T07:29:11.951Z,44.07
2017-06-15T07:30:12.531Z,44.27
2017-06-15T07:31:12.314Z,44.07
2017-06-15T07:32:12.022Z,44.17
2017-06-15T07:33:12.370Z,44.37
2017-06-15T07:34:12.398Z,44.37
2017-06-15T07:35:12.423Z,44.17
2017-06-15T07:36:12.466Z,44.27
2017-06-15T07:37:12.172Z,44.07
2017-06-15T07:38:12.514Z,44.07
2017-06-15T07:39:12.235Z,44.27
2017-06-15T07:40:12.261Z,44.27
2017-06-15T07:41:12.605Z,43.98
2017-06-15T07:42:12.314Z,44.27
2017-06-15T07:43:12.351Z,43.88
2017-06-15T07:44:12.699Z,44.46
2017-06-15T07:45:12.720Z,44.07
2017-06-15T07:46:12.753Z,43.98
2017-06-15T07:47:12.785Z,44.27
2017-06-15T07:48:12.803Z,44.27
2017-06-15T07:49:12.831Z,44.17
2017-06-15T07:50:12.552Z,43.88
2017-06-15T07:51:12.897Z,44.46
2017-06-15T07:52:12.925Z,44.07
2017-06-15T07:53:12.955Z,43.98
2017-06-15T07:54:12.988Z,44.46
2017-06-15T07:55:13.012Z,43.98
2017-06-15T07:56:13.046Z,44.37
2017-06-15T07:57:13.069Z,44.27
2017-06-15T07:58:13.099Z,44.07
2017-06-15T07:59:13.144Z,44.17
2017-06-15T08:00:13.164Z,44.07
2017-06-15T08:01:13.193Z,44.46
2017-06-15T08:02:13.215Z,44.17
2017-06-15T08:03:13.248Z,43.59
2017-06-15T08:04:12.968Z,44.27
2017-06-15T08:05:12.997Z,44.07
2017-06-15T08:06:13.340Z,44.37
2017-06-15T08:07:13.371Z,44.07
2017-06-15T08:08:13.402Z,44.07
2017-06-15T08:09:13.423Z,43.98
2017-06-15T08:10:13.457Z,44.37
2017-06-15T08:11:13.177Z,44.07
2017-06-15T08:12:13.510Z,43.98
2017-06-15T08:13:13.232Z,43.98
2017-06-15T08:14:13.263Z,43.88
2017-06-15T08:15:13.599Z,43.88
2017-06-15T08:16:13.318Z,43.88
2017-06-15T08:17:13.342Z,44.07
2017-06-15T08:18:13.690Z,44.17
2017-06-15T08:19:13.407Z,43.59
2017-06-15T08:20:13.749Z,43.68
2017-06-15T08:21:13.777Z,43.59
2017-06-15T08:22:13.809Z,43.59
2017-06-15T08:23:13.845Z,43.68
2017-06-15T08:24:13.871Z,43.59
2017-06-15T08:25:13.898Z,43.3
2017-06-15T08:26:13.929Z,43.49
2017-06-15T08:27:13.958Z,43.4
2017-06-15T08:28:13.983Z,43.8
2017-06-15T08:29:14.021Z,43.71
2017-06-15T08:30:14.047Z,43.78
2017-06-15T08:31:14.078Z,43.49
2017-06-15T08:32:14.137Z,43.59
2017-06-15T08:33:14.138Z,43.59
2017-06-15T08:34:14.167Z,43.49
2017-06-15T08:35:14.188Z,43.41
2017-06-15T08:36:14.226Z,43.68
2017-06-15T08:37:14.256Z,43.71
2017-06-15T08:38:14.286Z,43.41
2017-06-15T08:39:14.316Z,43.41
2017-06-15T08:40:14.344Z,43.51
2017-06-15T08:41:14.310Z,43.49
2017-06-15T08:42:14.402Z,43.61
2017-06-15T08:43:14.114Z,43.51
2017-06-15T08:44:14.146Z,43.51
2017-06-15T08:45:14.492Z,43.41
2017-06-15T08:46:14.773Z,43.22
2017-06-15T08:47:14.550Z,43.41
2017-06-15T08:48:14.578Z,43.32
2017-06-15T08:49:14.295Z,43.4
2017-06-15T08:50:14.639Z,43.61
2017-06-15T08:51:14.601Z,43.71
2017-06-15T08:52:14.383Z,43.61
2017-06-15T08:53:14.727Z,43.71
2017-06-15T08:54:14.759Z,43.78
2017-06-15T08:55:14.472Z,44
2017-06-15T08:56:15.061Z,43.71
2017-06-15T08:57:14.842Z,43.41
2017-06-15T08:58:14.871Z,43.61
2017-06-15T08:59:14.908Z,43.61
2017-06-15T09:00:14.943Z,43.51
2017-06-15T09:01:15.213Z,43.51
2017-06-15T09:02:14.993Z,43.61
2017-06-15T09:03:15.027Z,43.61
2017-06-15T09:04:15.055Z,44
2017-06-15T09:05:15.084Z,44.19
2017-06-15T09:06:15.363Z,43.32
2017-06-15T09:07:14.826Z,43.51
2017-06-15T09:08:15.170Z,44.19
2017-06-15T09:09:15.203Z,44
2017-06-15T09:10:15.246Z,43.32
2017-06-15T09:11:14.946Z,44.09
2017-06-15T09:12:15.290Z,44.09
2017-06-15T09:13:15.323Z,44.09
2017-06-15T09:14:15.347Z,43.51
2017-06-15T09:15:15.376Z,44.19
2017-06-15T09:16:15.661Z,44
2017-06-15T09:17:15.441Z,44.19
2017-06-15T09:18:15.470Z,44
2017-06-15T09:19:15.500Z,43.71
2017-06-15T09:20:15.528Z,43.61
2017-06-15T09:21:15.558Z,43.61
2017-06-15T09:22:15.586Z,43.61
2017-06-15T09:23:15.614Z,43.32
2017-06-15T09:24:15.641Z,43.51
2017-06-15T09:25:15.672Z,43.61
2017-06-15T09:26:15.704Z,44.21
2017-06-15T09:27:15.738Z,43.61
2017-06-15T09:28:15.458Z,44
2017-06-15T09:29:15.794Z,44.19
2017-06-15T09:30:15.828Z,43.54
2017-06-15T09:31:15.853Z,44.21
2017-06-15T09:32:15.885Z,43.73
2017-06-15T09:33:15.602Z,43.51
2017-06-15T09:34:15.626Z,44.12
2017-06-15T09:35:15.976Z,44.21
2017-06-15T09:36:16.004Z,44.09
2017-06-15T09:37:16.033Z,43.73
2017-06-15T09:38:16.058Z,43.63
2017-06-15T09:39:16.096Z,44.12
2017-06-15T09:40:16.128Z,44.02
2017-06-15T09:41:15.841Z,43.92
2017-06-15T09:42:16.177Z,44.12
2017-06-15T09:43:15.903Z,44.02
2017-06-15T09:44:15.931Z,44.02
2017-06-15T09:45:15.959Z,44.02
2017-06-15T09:46:16.301Z,44.21
2017-06-15T09:47:16.334Z,43.63
2017-06-15T09:48:16.364Z,43.92
2017-06-15T09:49:16.084Z,43.73
2017-06-15T09:50:16.104Z,43.54
2017-06-15T09:51:16.451Z,43.54
2017-06-15T09:52:16.481Z,43.82
2017-06-15T09:53:16.507Z,43.54
2017-06-15T09:54:16.543Z,43.73
2017-06-15T09:55:16.565Z,43.44
2017-06-15T09:56:16.287Z,43.54
2017-06-15T09:57:16.623Z,43.63
2017-06-15T09:58:16.655Z,43.34
2017-06-15T09:59:16.693Z,43.24
2017-06-15T10:00:16.407Z,43.54
2017-06-15T10:01:16.439Z,43.54
2017-06-15T10:02:16.777Z,43.34
2017-06-15T10:03:16.806Z,43.44
2017-06-15T10:04:16.563Z,43.34
2017-06-15T10:05:16.558Z,43.44
2017-06-15T10:06:16.888Z,43.15
2017-06-15T10:07:16.930Z,43.34
2017-06-15T10:08:16.955Z,43.44
2017-06-15T10:09:16.983Z,43.15
2017-06-15T10:10:17.020Z,42.85
2017-06-15T10:11:17.049Z,43.05
2017-06-15T10:12:16.790Z,42.95
2017-06-15T10:13:17.108Z,43.34
2017-06-15T10:14:17.139Z,43.05
2017-06-15T10:15:16.848Z,43.24
2017-06-15T10:16:17.200Z,42.85
2017-06-15T10:17:16.914Z,43.24
2017-06-15T10:18:16.947Z,43.82
2017-06-15T10:19:17.279Z,43.44
2017-06-15T10:20:17.321Z,44.02
2017-06-15T10:21:17.352Z,43.24
2017-06-15T10:22:17.378Z,43.15
2017-06-15T10:23:17.096Z,43.92
2017-06-15T10:24:17.434Z,43.54
2017-06-15T10:25:17.468Z,43.44
2017-06-15T10:26:17.497Z,43.65
2017-06-15T10:27:17.535Z,43.34
2017-06-15T10:28:17.558Z,43.34
2017-06-15T10:29:17.587Z,42.76
2017-06-15T10:30:17.612Z,43.65
2017-06-15T10:31:17.653Z,42.95
2017-06-15T10:32:17.674Z,43.44
2017-06-15T10:33:17.710Z,43.05
2017-06-15T10:34:17.736Z,43.15
2017-06-15T10:35:17.451Z,42.85
2017-06-15T10:36:17.482Z,42.97
2017-06-15T10:37:17.829Z,43.05
2017-06-15T10:38:17.854Z,42.68
2017-06-15T10:39:17.886Z,42.95
2017-06-15T10:40:17.924Z,42.85
2017-06-15T10:41:17.949Z,42.95
2017-06-15T10:42:17.970Z,43.07
2017-06-15T10:43:18.010Z,42.97
2017-06-15T10:44:18.040Z,42.87
2017-06-15T10:45:18.062Z,42.78
2017-06-15T10:46:18.102Z,42.87
2017-06-15T10:47:18.130Z,42.49
2017-06-15T10:48:17.847Z,42.39
2017-06-15T10:49:18.183Z,42.68
2017-06-15T10:50:17.904Z,42.68
2017-06-15T10:51:18.245Z,42.87
2017-06-15T10:52:18.282Z,42.68
2017-06-15T10:53:18.319Z,42.68
2017-06-15T10:54:18.335Z,42.58
2017-06-15T10:55:18.368Z,42.49
2017-06-15T10:56:18.085Z,42.58
2017-06-15T10:57:18.430Z,42.87
2017-06-15T10:58:18.148Z,42.58
2017-06-15T10:59:18.491Z,42.78
2017-06-15T11:00:18.516Z,42.68
2017-06-15T11:01:18.553Z,42.68
2017-06-15T11:02:18.582Z,42.58
2017-06-15T11:03:18.610Z,42.68
2017-06-15T11:04:18.634Z,42.58
2017-06-15T11:05:18.671Z,42.29
2017-06-15T11:06:18.705Z,42.68
2017-06-15T11:07:18.733Z,42.58
2017-06-15T11:08:18.774Z,42.68
2017-06-15T11:09:18.793Z,42.87
2017-06-15T11:10:18.836Z,42.78
2017-06-15T11:11:18.853Z,42.1
2017-06-15T11:12:18.879Z,42.68
2017-06-15T11:13:18.915Z,42.68
2017-06-15T11:14:18.944Z,42.29
2017-06-15T11:15:18.976Z,42
2017-06-15T11:16:19.001Z,42.58
2017-06-15T11:17:19.079Z,42.1
2017-06-15T11:18:19.067Z,42.39
2017-06-15T11:19:19.096Z,42.39
2017-06-15T11:20:19.126Z,42.49
2017-06-15T11:21:19.164Z,42.41
2017-06-15T11:22:19.186Z,42.29
2017-06-15T11:23:19.215Z,42.49
2017-06-15T11:24:19.243Z,42.39
2017-06-15T11:25:19.273Z,42.49
2017-06-15T11:26:19.309Z,42.5
2017-06-15T11:27:19.022Z,42.6
2017-06-15T11:28:19.367Z,42.41
2017-06-15T11:29:19.401Z,41.83
2017-06-15T11:30:19.428Z,41.93
2017-06-15T11:31:19.448Z,41.83
2017-06-15T11:32:19.489Z,42.11
2017-06-15T11:33:19.523Z,41.53
2017-06-15T11:34:19.560Z,41.93
2017-06-15T11:35:19.575Z,41.73
2017-06-15T11:36:19.613Z,41.93
2017-06-15T11:37:19.639Z,41.83
2017-06-15T11:38:19.363Z,41.65
2017-06-15T11:39:19.390Z,40.97
2017-06-15T11:40:19.733Z,41.46
2017-06-15T11:41:19.449Z,41.16
2017-06-15T11:42:19.797Z,41.06
2017-06-15T11:43:19.831Z,40.31
2017-06-15T11:44:19.856Z,40.5
2017-06-15T11:45:19.581Z,39.82
2017-06-15T11:46:19.925Z,39.26
2017-06-15T11:47:20.205Z,39.37
2017-06-15T11:48:19.987Z,38.98
2017-06-15T11:49:20.021Z,38.69
2017-06-15T11:50:20.052Z,38.4
2017-06-15T11:51:20.086Z,38.42
2017-06-15T11:52:20.366Z,38.14
2017-06-15T11:53:20.150Z,37.75
2017-06-15T11:54:20.185Z,37.75
2017-06-15T11:55:20.217Z,37.09
2017-06-15T11:56:20.249Z,36.9
2017-06-15T11:57:20.282Z,36.8
2017-06-15T11:58:20.316Z,36.82
2017-06-15T11:59:20.349Z,36.43
2017-06-15T12:00:20.381Z,36.23
2017-06-15T12:01:20.417Z,36.23
2017-06-15T12:02:20.437Z,35.56
2017-06-15T12:03:20.479Z,35.66
2017-06-15T12:04:20.512Z,35.68
2017-06-15T12:05:20.578Z,35.48
2017-06-15T12:06:20.581Z,35.28
2017-06-15T12:07:20.614Z,35.38
2017-06-15T12:08:20.644Z,35.38
2017-06-15T12:09:20.696Z,35.09
2017-06-15T12:10:20.715Z,35.09
2017-06-15T12:11:20.751Z,35.48
2017-06-15T12:12:21.027Z,35.38
2017-06-15T12:13:20.508Z,35.46
2017-06-15T12:14:20.852Z,35.28
2017-06-15T12:15:20.576Z,35.48
2017-06-15T12:16:20.913Z,35.28
2017-06-15T12:17:21.206Z,35.38
2017-06-15T12:18:20.983Z,35.38
2017-06-15T12:19:21.020Z,35.19
2017-06-15T12:20:21.053Z,35.69
2017-06-15T12:21:21.085Z,34.91
2017-06-15T12:22:21.094Z,34.91
2017-06-15T12:23:21.151Z,35.5
2017-06-15T12:24:21.187Z,34.93
2017-06-15T12:25:21.221Z,34.74
2017-06-15T12:26:20.952Z,34.93
2017-06-15T12:27:21.287Z,34.74
2017-06-15T12:28:21.012Z,34.64
2017-06-15T12:29:21.044Z,34.75
2017-06-15T12:30:21.390Z,34.74
2017-06-15T12:31:21.125Z,34.75
2017-06-15T12:32:21.715Z,34.84
2017-06-15T12:33:21.498Z,34.45
2017-06-15T12:34:21.532Z,34.45
2017-06-15T12:35:21.564Z,33.97
2017-06-15T12:36:21.288Z,34.06
2017-06-15T12:37:21.919Z,33.98
2017-06-15T12:38:21.672Z,33.59
2017-06-15T12:39:21.388Z,33.5
2017-06-15T12:40:21.429Z,33.59
2017-06-15T12:41:21.786Z,33.31
2017-06-15T12:42:22.059Z,33.51
2017-06-15T12:43:21.839Z,33.12
2017-06-15T12:44:21.880Z,33.31
2017-06-15T12:45:21.910Z,33.31
2017-06-15T12:46:21.636Z,33.31
2017-06-15T12:47:21.978Z,32.63
2017-06-15T12:48:22.019Z,32.74
2017-06-15T12:49:22.052Z,32.94
2017-06-15T12:50:22.090Z,33.04
2017-06-15T12:51:22.125Z,32.84
2017-06-15T12:52:22.154Z,32.35
2017-06-15T12:53:22.195Z,32.84
2017-06-15T12:54:22.224Z,32.94
2017-06-15T12:55:22.261Z,33.04
2017-06-15T12:56:21.986Z,32.64
2017-06-15T12:57:22.266Z,32.64
2017-06-15T12:58:22.374Z,33.41